Tiempo atmosférico en la estación meteorológica de Vallehermoso, Alto Igualero, Santa Cruz de Tenerife (1475 m.)



Fecha
DESCASC
Temp. máxima en grados centígrados (hora)
DESCASC
Temp. mínima en grados centígrados (hora)
DESCASC
Temp. media en grados centígrados
DESCASC
Racha de viento máxima en m/sg (hora)
DESCASC
Velocidad máxima media en intervalos de 10 minutos(hora)
DESCASC
Precipitaciones diarias en mm
DESCASC
Precipitaciones de 00:00 a 06:00 en mm
DESCASC
Precipitaciones de 06:00 a 12:00 en mm
DESCASC
Precipitaciones de 12:00 a 18:00 en mm
DESCASC
Precipitaciones de 18:00 a 24:00 en mm
DESCASC
25-01-2020 8.7 (15:20) 4.2 (02:30) 6.4 11.39 (07:10) 7.22 (06:10) 0.2 0.2 0 0 0
24-01-2020 9.4 (12:40) 4.3 (02:10) 6.8 10.28 (20:30) 7.78 (23:10) 0.2 0 0 0 0.2
23-01-2020 9.9 (12:50) 3.6 (06:30) 6.7 9.17 (00:50) 7.78 (00:50) 0 0 0 0 0
22-01-2020 8.4 (15:20) 2 (00:00) 5.2 7.5 (23:59) 6.39 (23:59) 0.2 0.2 0 0 0
21-01-2020 6.4 (14:40) 3 (00:00) 4.7 16.67 (00:10) 11.39 (00:10) 2 0.2 0.2 1.6 0
20-01-2020 13.9 (13:40) 3.8 (00:00) 8.8 17.78 (00:10) 14.17 (00:20) 0.2 0.2 0 0 0
19-01-2020 16 (12:20) 7.1 (00:00) 11.5 18.61 (23:40) 14.44 (22:20) 0 0 0 0 0
18-01-2020 12.3 (15:40) 8.1 (00:00) 10.2 19.17 (05:30) 16.39 (05:30) 0 0 0 0 0
17-01-2020 13.6 (15:50) 5.8 (00:00) 9.7 13.61 (09:10) 11.67 (08:10) 0 0 0 0 0
16-01-2020 13 (14:30) 5.1 (00:00) 9 10.83 (00:10) 10 (00:30) 0 0 0 0 0
15-01-2020 10.4 (13:50) 4.4 (00:00) 7.4 11.67 (23:20) 10.28 (23:50) 0 0 0 0 0
14-01-2020 11 (14:00) 5.2 (00:00) 8.1 16.11 (07:10) 11.39 (00:40) 0 0 0 0 0
13-01-2020 12 (14:20) 4.7 (00:00) 8.3 15.56 (04:00) 13.61 (04:00) 0 0 0 0 0
12-01-2020 9.4 (12:40) 4.7 (23:30) 7 16.94 (04:20) 13.61 (04:20) 0.2 0 0.2 0 0
11-01-2020 9.4 (07:50) 5 (00:00) 7.2 17.78 (19:50) 13.33 (13:10) 0.8 0.2 0 0 0.6
10-01-2020 8.9 (13:00) 5.7 (00:00) 7.3 24.44 (02:10) 19.72 (01:50) 2.4 0.2 1.2 0.8 0.2
09-01-2020 6.5 (13:00) 4.4 (00:00) 5.5 25 (22:10) 18.06 (22:10) 0.4 0 0.2 0 0.2
08-01-2020 6.6 (09:40) 4.4 (00:00) 5.5 21.67 (22:10) 16.67 (22:30) 0.2 0 0 0 0.2
07-01-2020 7.8 (15:30) 3.8 (00:00) 5.8 24.44 (03:30) 18.33 (04:40) 0.4 0.2 0 0 0.2
06-01-2020 7 (07:50) 4.8 (00:00) 5.9 25 (21:30) 19.17 (21:50) 1.4 0 0.4 0 1
05-01-2020 12.3 (12:40) 5.7 (00:00) 9 14.44 (23:50) 11.11 (23:50) 0 0 0 0 0
04-01-2020 14.2 (15:00) 6.2 (00:00) 10.2 19.17 (02:10) 15.28 (02:00) 0 0 0 0 0
03-01-2020 8.3 (14:30) 4.5 (00:00) 6.4 20 (05:20) 17.22 (08:30) 0 0 0 0 0
02-01-2020 9.3 (15:40) 4.6 (00:00) 7 19.44 (02:20) 16.39 (03:10) 0 0 0 0 0
01-01-2020 11.1 (22:40) 6.3 (00:00) 8.7 21.11 (11:20) 17.5 (05:10) 0 0 0 0 0
31-12-2019 17.6 (12:20) 11 (00:00) 14.3 16.39 (00:10) 12.22 (02:10) 0 0 0 0 0
30-12-2019 -- (--) -- (--) -- -- (--) -- (--) -- 0 0 -- 0
29-12-2019 15 (15:10) 10.9 (00:00) 12.9 16.39 (10:00) 13.33 (05:30) 0 0 0 0 0
28-12-2019 16.4 (13:20) 12.1 (00:00) 14.3 13.89 (02:00) 11.67 (02:00) 0 0 0 0 0

Gráficas

Temp. máximas Temp. mínimas Temp. medias Precipitaciones Rachas de viento máximas Velocidades máximas media en intervalos de 10 minutos

Datos horarios

Fecha y hora oficial Temperatura (ºC) Velocidad del viento (km/h) Dirección del viento Racha (km/h) Dirección de racha Precipitación (mm) Presión (hPa) Tendencia (hPa) Humedad (%)
2020-01-26 23:00:00 5.9 20 Nordeste 33 Nordeste 0 -- -- 100
2020-01-26 22:00:00 6.3 26 Nordeste 37 Nordeste 0.2 -- -- 100
2020-01-26 21:00:00 6 28 Nordeste 44 Nordeste 0 -- -- 100
2020-01-26 20:00:00 5.5 35 Este 44 Este 0 -- -- 100
2020-01-26 19:00:00 4.9 22 Este 30 Este 0 -- -- 100
2020-01-26 18:00:00 5.8 18 Este 26 Este 0 -- -- 100
2020-01-26 17:00:00 6.9 7 Nordeste 14 Nordeste 0 -- -- 97
2020-01-26 16:00:00 7.7 3 Oeste 7 Sudoeste 0 -- -- 93
2020-01-26 15:00:00 8.1 5 Sudoeste 9 Sudoeste 0 -- -- 89
2020-01-26 14:00:00 8.8 4 Norte 19 Oeste 0 -- -- 85
2020-01-26 13:00:00 9.5 4 Noroeste 16 Este 0 -- -- 84
2020-01-26 12:00:00 7.9 8 Este 23 Este 0 -- -- 85
2020-01-26 11:00:00 7.9 12 Sudeste 30 Este 0 -- -- 84
2020-01-26 10:00:00 5.9 24 Este 38 Este 0 -- -- 100
2020-01-26 09:00:00 4.7 27 Nordeste 39 Nordeste 0 -- -- 100
2020-01-26 08:00:00 4.3 30 Nordeste 37 Nordeste 0 -- -- 100
2020-01-26 07:00:00 4.1 28 Nordeste 38 Nordeste 0 -- -- 100
2020-01-26 06:00:00 4 28 Nordeste 36 Nordeste 0 -- -- 96
2020-01-26 05:00:00 4.1 28 Nordeste 32 Nordeste 0 -- -- 94
2020-01-26 04:00:00 4.3 27 Nordeste 30 Nordeste 0 -- -- 95
2020-01-26 03:00:00 4.2 18 Nordeste 25 Nordeste 0 -- -- 96
2020-01-26 02:00:00 4.2 21 Nordeste 27 Nordeste 0 -- -- 98
2020-01-26 01:00:00 4 14 Nordeste 22 Nordeste 0 -- -- 100
2020-01-26 00:00:00 4.4 18 Nordeste 26 Nordeste 0 -- -- 100
2020-01-25 23:00:00 4.4 18 Nordeste 28 Nordeste 0 -- -- 100
2020-01-25 22:00:00 4.7 18 Nordeste 28 Nordeste 0 -- -- 100
2020-01-25 21:00:00 4.8 18 Nordeste 28 Nordeste 0 -- -- 100
2020-01-25 20:00:00 4.7 17 Nordeste 23 Norte 0 -- -- 100
2020-01-25 19:00:00 5 17 Norte 22 Norte 0 -- -- 87
2020-01-25 18:00:00 5.9 12 Norte 17 Norte 0 -- -- 89
2020-01-25 17:00:00 6.7 11 Norte 18 Nordeste 0 -- -- 92
2020-01-25 16:00:00 7.4 9 Norte 20 Este 0 -- -- 86
2020-01-25 15:00:00 8.1 10 Norte 23 Este 0 -- -- 87
2020-01-25 14:00:00 8.4 12 Este 20 Este 0 -- -- 84
2020-01-25 13:00:00 6.9 8 Norte 23 Nordeste 0 -- -- 89
2020-01-25 12:00:00 6.1 9 Nordeste 27 Norte 0 -- -- 100
2020-01-25 11:00:00 5.8 11 Nordeste 26 Nordeste 0 -- -- 100
2020-01-25 10:00:00 5.7 16 Nordeste 31 Nordeste 0 -- -- 100
2020-01-25 09:00:00 4.7 16 Norte 34 Norte 0 -- -- 100
2020-01-25 08:00:00 4.9 14 Nordeste 41 Norte 0 -- -- 100
2020-01-25 07:00:00 4.9 24 Norte 39 Norte 0 -- -- 100
2020-01-25 06:00:00 5.1 20 Norte 33 Norte 0 -- -- 100
2020-01-25 05:00:00 4.3 19 Norte 32 Norte 0.2 -- -- 100
2020-01-25 04:00:00 4.2 20 Norte 27 Norte 0 -- -- 100
2020-01-25 03:00:00 4.7 10 Nordeste 24 Norte 0 -- -- 100
2020-01-25 02:00:00 4.7 15 Nordeste 27 Nordeste 0 -- -- 100
2020-01-25 01:00:00 4.5 14 Nordeste 30 Nordeste 0 -- -- 100
2020-01-25 00:00:00 4.6 20 Norte 35 Norte 0 -- -- 100
2020-01-24 23:00:00 4.6 25 Norte 36 Norte 0 -- -- 100
2020-01-24 22:00:00 4.7 21 Norte 33 Noroeste 0.2 -- -- 100
2020-01-24 21:00:00 5.7 15 Norte 37 Norte 0 -- -- 100
2020-01-24 20:00:00 5.7 17 Norte 34 Noroeste 0 -- -- 100
2020-01-24 19:00:00 5.8 19 Norte 35 Norte 0 -- -- 93
2020-01-24 18:00:00 7.3 15 Noroeste 27 Noroeste 0 -- -- 89
2020-01-24 17:00:00 7.8 19 Noroeste 28 Noroeste 0 -- -- 83
2020-01-24 16:00:00 7 14 Norte 21 Noroeste 0 -- -- 91
2020-01-24 15:00:00 7.9 9 Norte 23 Noroeste 0 -- -- 77
2020-01-24 14:00:00 8 13 Noroeste 22 Noroeste 0 -- -- 87
2020-01-24 13:00:00 8.7 5 Noroeste 23 Oeste 0 -- -- 81
2020-01-24 12:00:00 7.3 9 Norte 15 Norte 0 -- -- 76
2020-01-24 11:00:00 6.5 8 Noroeste 14 Noroeste 0 -- -- 78
2020-01-24 10:00:00 6 7 Noroeste 12 Norte 0 -- -- 79
2020-01-24 09:00:00 5.5 8 Noroeste 11 Noroeste 0 -- -- 81
2020-01-24 08:00:00 4.7 9 Noroeste 10 Noroeste 0 -- -- 83
2020-01-24 07:00:00 4.8 10 Noroeste 12 Noroeste 0 -- -- 84
2020-01-24 06:00:00 4.9 9 Noroeste 16 Norte 0 -- -- 85
2020-01-24 05:00:00 4.9 14 Norte 22 Norte 0 -- -- 85
2020-01-24 04:00:00 4.9 14 Norte 22 Norte 0 -- -- 83
2020-01-24 03:00:00 4.4 18 Norte 27 Norte 0 -- -- 96
2020-01-24 02:00:00 4.5 16 Norte 26 Norte 0 -- -- 100
2020-01-24 01:00:00 4.7 16 Norte 26 Norte 0 -- -- 100
2020-01-24 00:00:00 4.9 18 Norte 25 Norte 0 -- -- 96
2020-01-23 23:00:00 4.6 19 Norte 22 Norte 0 -- -- 86
2020-01-23 22:00:00 4.7 19 Norte 21 Norte 0 -- -- 84
2020-01-23 21:00:00 4.9 16 Norte 19 Norte 0 -- -- 76
2020-01-23 20:00:00 4.8 14 Norte 18 Norte 0 -- -- 85
2020-01-23 19:00:00 5 11 Norte 15 Norte 0 -- -- 83
2020-01-23 18:00:00 5.6 7 Norte 10 Este 0 -- -- 94
2020-01-23 17:00:00 6.7 8 Este 18 Nordeste 0 -- -- 87
2020-01-23 16:00:00 7.9 8 Nordeste 16 Nordeste 0 -- -- 87
2020-01-23 15:00:00 7.5 8 Este 13 Nordeste 0 -- -- 93
2020-01-23 14:00:00 8.7 2 Sur 18 Noroeste 0 -- -- 91
2020-01-23 13:00:00 9.5 3 Sudeste 21 Noroeste 0 -- -- 84
2020-01-23 12:00:00 7.7 10 Noroeste 22 Noroeste 0 -- -- 85
2020-01-23 11:00:00 5.4 11 Norte 21 Norte 0 -- -- 95
2020-01-23 10:00:00 5.1 15 Norte 27 Noroeste 0 -- -- 96
2020-01-23 09:00:00 4.3 18 Norte 26 Norte 0 -- -- 100
2020-01-23 08:00:00 4.2 17 Norte 25 Norte 0 -- -- 100
2020-01-23 07:00:00 4 22 Noroeste 26 Noroeste 0 -- -- 100
2020-01-23 06:00:00 4.1 14 Noroeste 22 Noroeste 0 -- -- 100
2020-01-23 05:00:00 4.4 18 Norte 26 Norte 0 -- -- 100
2020-01-23 04:00:00 4.5 19 Norte 29 Norte 0 -- -- 100
2020-01-23 03:00:00 4.1 21 Norte 28 Norte 0 -- -- 100
2020-01-23 02:00:00 4.3 23 Norte 33 Norte 0 -- -- 100
2020-01-23 01:00:00 4.1 28 Norte 33 Norte 0 -- -- 95
2020-01-23 00:00:00 3.8 23 Norte 27 Norte 0 -- -- 96
2020-01-22 23:00:00 4.1 19 Noroeste 21 Noroeste 0 -- -- 82
2020-01-22 22:00:00 4 15 Noroeste 22 Noroeste 0 -- -- 96
2020-01-22 21:00:00 4.2 15 Noroeste 18 Noroeste 0 -- -- 87
2020-01-22 20:00:00 3.9 13 Noroeste 18 Noroeste 0 -- -- 86
2020-01-22 19:00:00 4.3 12 Noroeste 17 Noroeste 0 -- -- 86
2020-01-22 18:00:00 5.7 9 Noroeste 14 Noroeste 0 -- -- 84
2020-01-22 17:00:00 6.1 12 Noroeste 20 Oeste 0 -- -- 89
2020-01-22 16:00:00 6.5 8 Norte 19 Noroeste 0 -- -- 91
2020-01-22 15:00:00 7.4 8 Oeste 18 Sudoeste 0 -- -- 83
2020-01-22 14:00:00 7 11 Sudoeste 17 Sudoeste 0 -- -- 87
2020-01-22 13:00:00 7.5 8 Sudoeste 18 Oeste 0 -- -- 85
2020-01-22 12:00:00 6.2 10 Nordeste 19 Noroeste 0 -- -- 71
2020-01-22 11:00:00 5.6 3 Noroeste 12 Este 0 -- -- 68
2020-01-22 10:00:00 6.4 4 Este 14 Este 0 -- -- 77
2020-01-22 09:00:00 4.2 11 Nordeste 21 Nordeste 0 -- -- 85
2020-01-22 08:00:00 3.2 18 Nordeste 23 Nordeste 0 -- -- 90
2020-01-22 07:00:00 3 17 Nordeste 21 Nordeste 0 -- -- 91
2020-01-22 06:00:00 2.6 15 Nordeste 21 Nordeste 0 -- -- 93
2020-01-22 05:00:00 2.8 20 Nordeste 23 Nordeste 0 -- -- 90
2020-01-22 04:00:00 2.7 21 Nordeste 26 Nordeste 0 -- -- 100
2020-01-22 03:00:00 2.9 18 Nordeste 23 Nordeste 0 -- -- 100
2020-01-22 02:00:00 2.5 20 Nordeste 25 Nordeste 0 -- -- 100
2020-01-22 01:00:00 3.1 21 Nordeste 27 Nordeste 0.2 -- -- 100
2020-01-22 00:00:00 3.3 23 Nordeste 31 Nordeste 0 -- -- 100
2020-01-21 23:00:00 3.3 25 Nordeste 35 Nordeste 0 -- -- 100
2020-01-21 22:00:00 3.5 27 Nordeste 38 Nordeste 0 -- -- 100
2020-01-21 21:00:00 3.5 22 Nordeste 38 Nordeste 0 -- -- 100
2020-01-21 20:00:00 4.1 23 Nordeste 35 Norte 0 -- -- 100
2020-01-21 19:00:00 4.3 21 Nordeste 28 Nordeste 0 -- -- 100
2020-01-21 18:00:00 4.1 20 Norte 35 Norte 0 -- -- 100
2020-01-21 17:00:00 4.7 28 Noroeste 36 Noroeste 0 -- -- 100
2020-01-21 16:00:00 4.6 23 Noroeste 38 Norte 0.2 -- -- 100
2020-01-21 15:00:00 5.9 14 Norte 31 Norte 1.4 -- -- 100
2020-01-21 14:00:00 5.5 11 Noroeste 34 Noroeste 0 -- -- 100
2020-01-21 13:00:00 5.5 18 Noroeste 38 Norte 0 -- -- 100
2020-01-21 12:00:00 5.1 12 Nordeste 34 Norte 0 -- -- 100
2020-01-21 11:00:00 4.9 21 Norte 43 Nordeste 0 -- -- 100
2020-01-21 10:00:00 4.1 28 Nordeste 55 Norte 0 -- -- 100
2020-01-21 09:00:00 3.7 35 Nordeste 56 Norte 0.2 -- -- 100
2020-01-21 08:00:00 3.6 34 Nordeste 52 Nordeste 0 -- -- 100
2020-01-21 07:00:00 3.7 30 Nordeste 51 Nordeste 0 -- -- 100
2020-01-21 06:00:00 4 30 Nordeste 51 Nordeste 0 -- -- 100
2020-01-21 05:00:00 4.2 30 Nordeste 56 Nordeste 0 -- -- 100
2020-01-21 04:00:00 4.4 29 Nordeste 49 Nordeste 0.2 -- -- 100
2020-01-21 03:00:00 4.9 35 Nordeste 53 Nordeste 0 -- -- 100
2020-01-21 02:00:00 4.5 28 Nordeste 54 Nordeste 0 -- -- 100
2020-01-21 01:00:00 4.2 38 Nordeste 60 Nordeste 0 -- -- 100
2020-01-21 00:00:00 4.6 42 Nordeste 57 Nordeste 0 -- -- 100
2020-01-20 23:00:00 4.9 44 Nordeste 64 Nordeste 0 -- -- 100
2020-01-20 22:00:00 4.6 44 Nordeste 59 Nordeste 0 -- -- 100
2020-01-20 21:00:00 4.6 44 Nordeste 62 Nordeste 0 -- -- 100
2020-01-20 20:00:00 4.6 41 Nordeste 57 Nordeste 0 -- -- 100
2020-01-20 19:00:00 5 33 Nordeste 47 Nordeste 0 -- -- 100
2020-01-20 18:00:00 5.5 35 Nordeste 44 Nordeste 0 -- -- 100
2020-01-20 17:00:00 6 28 Nordeste 39 Nordeste 0 -- -- 100
2020-01-20 16:00:00 6.9 18 Nordeste 29 Nordeste 0 -- -- 96
2020-01-20 15:00:00 13.5 6 Oeste 16 Nordeste 0 -- -- 63
2020-01-20 14:00:00 13.7 5 Oeste 23 Norte 0 -- -- 50
2020-01-20 13:00:00 11.3 19 Nordeste 28 Nordeste 0 -- -- 43
2020-01-20 12:00:00 12.4 25 Nordeste 36 Norte 0 -- -- 29
2020-01-20 11:00:00 9.2 33 Norte 37 Nordeste 0 -- -- 48
2020-01-20 10:00:00 8.9 31 Nordeste 39 Nordeste 0 -- -- 42
2020-01-20 09:00:00 5.2 28 Nordeste 45 Nordeste 0 -- -- 93
2020-01-20 08:00:00 4.7 37 Nordeste 48 Nordeste 0 -- -- 100
2020-01-20 07:00:00 5.7 36 Nordeste 51 Nordeste 0 -- -- 100
2020-01-20 06:00:00 6.3 35 Nordeste 53 Nordeste 0 -- -- 100
2020-01-20 05:00:00 6.5 37 Nordeste 51 Nordeste 0 -- -- 100
2020-01-20 04:00:00 7.2 35 Nordeste 53 Nordeste 0.2 -- -- 100
2020-01-20 03:00:00 8.5 35 Nordeste 52 Nordeste 0 -- -- 100
2020-01-20 02:00:00 8.1 41 Nordeste 62 Nordeste 0 -- -- 100
2020-01-20 01:00:00 7.4 43 Nordeste 64 Nordeste 0 -- -- 96
2020-01-20 00:00:00 7.3 49 Nordeste 67 Nordeste 0 -- -- 88
2020-01-19 23:00:00 8.6 50 Nordeste 63 Nordeste 0 -- -- 74
2020-01-19 22:00:00 9.7 51 Nordeste 60 Nordeste 0 -- -- 31
2020-01-19 21:00:00 10.1 40 Nordeste 52 Este 0 -- -- 36
2020-01-19 20:00:00 11.6 38 Nordeste 46 Nordeste 0 -- -- 34
2020-01-19 19:00:00 12.2 32 Nordeste 38 Nordeste 0 -- -- 35
2020-01-19 18:00:00 12.2 8 Este 13 Nordeste 0 -- -- 34
2020-01-19 17:00:00 14.4 6 Nordeste 14 Sudeste 0 -- -- 43
2020-01-19 16:00:00 15 3 Este 12 Este 0 -- -- 53
2020-01-19 15:00:00 15.6 9 Este 21 Nordeste 0 -- -- 29
2020-01-19 14:00:00 14 9 Nordeste 19 Noroeste 0 -- -- 29
2020-01-19 13:00:00 14.6 4 Norte 13 Este 0 -- -- 36
2020-01-19 12:00:00 15.2 7 Este 21 Este 0 -- -- 21
2020-01-19 11:00:00 13.9 15 Este 38 Sudeste 0 -- -- 18
2020-01-19 10:00:00 12.2 30 Sudeste 39 Sudeste 0 -- -- 23
2020-01-19 09:00:00 11.2 24 Este 40 Sudeste 0 -- -- 24
2020-01-19 08:00:00 9.8 33 Sudeste 41 Sudeste 0 -- -- 24
2020-01-19 07:00:00 10.2 36 Sudeste 45 Sudeste 0 -- -- 23
2020-01-19 06:00:00 9.9 32 Sudeste 54 Sudeste 0 -- -- 25
2020-01-19 05:00:00 10 46 Este 53 Este 0 -- -- 24
2020-01-19 04:00:00 10.2 42 Este 55 Este 0 -- -- 16
2020-01-19 03:00:00 10.8 50 Este 63 Este 0 -- -- 14
2020-01-19 02:00:00 11.2 46 Este 64 Sudeste 0 -- -- 13
2020-01-19 01:00:00 10.8 46 Este 61 Sudeste 0 -- -- 14
2020-01-19 00:00:00 11.8 43 Este 54 Este 0 -- -- 19
2020-01-18 23:00:00 12 39 Este 50 Este 0 -- -- 17
2020-01-18 22:00:00 11.4 36 Este 49 Este 0 -- -- 20
2020-01-18 21:00:00 11.2 43 Este 51 Este 0 -- -- 24
2020-01-18 20:00:00 11 39 Este 45 Este 0 -- -- 26
2020-01-18 19:00:00 11.1 36 Este 48 Este 0 -- -- 20
2020-01-18 18:00:00 11.3 30 Este 43 Sudeste 0 -- -- 20
2020-01-18 17:00:00 11 23 Este 33 Este 0 -- -- 32
2020-01-18 16:00:00 11.9 17 Sudeste 30 Este 0 -- -- 35
2020-01-18 15:00:00 12 18 Este 34 Este 0 -- -- 34
2020-01-18 14:00:00 11.9 21 Este 50 Este 0 -- -- 36
2020-01-18 13:00:00 11 33 Este 50 Este 0 -- -- 35
2020-01-18 12:00:00 11.1 24 Este 49 Este 0 -- -- 37
2020-01-18 11:00:00 10.1 40 Este 64 Este 0 -- -- 36
2020-01-18 10:00:00 9.7 51 Este 65 Este 0 -- -- 32
2020-01-18 09:00:00 9.2 48 Este 59 Este 0 -- -- 29
2020-01-18 08:00:00 8.1 49 Este 65 Este 0 -- -- 30
2020-01-18 07:00:00 8.5 52 Este 67 Sudeste 0 -- -- 29
2020-01-18 06:00:00 8.9 56 Este 69 Sudeste 0 -- -- 26
2020-01-18 05:00:00 9.1 58 Sudeste 69 Sudeste 0 -- -- 26
2020-01-18 04:00:00 9 52 Este 62 Este 0 -- -- 25
2020-01-18 03:00:00 8.4 45 Este 53 Este 0 -- -- 24
2020-01-18 02:00:00 8.7 41 Este 55 Este 0 -- -- 27
2020-01-18 01:00:00 8.6 32 Este 38 Este 0 -- -- 26
2020-01-18 00:00:00 10.9 24 Este 33 Este 0 -- -- 21
2020-01-17 23:00:00 11.7 24 Este 34 Este 0 -- -- 19
2020-01-17 22:00:00 11.8 25 Este 33 Este 0 -- -- 20
2020-01-17 21:00:00 11.2 22 Este 28 Este 0 -- -- 20
2020-01-17 20:00:00 10.9 21 Este 28 Este 0 -- -- 15
2020-01-17 19:00:00 10.5 24 Este 28 Este 0 -- -- 17
2020-01-17 18:00:00 10.9 22 Este 26 Este 0 -- -- 15
2020-01-17 17:00:00 11.8 16 Este 26 Sudeste 0 -- -- 20
2020-01-17 16:00:00 13.4 13 Sudeste 25 Este 0 -- -- 22
2020-01-17 15:00:00 12.6 15 Este 25 Este 0 -- -- 27
2020-01-17 14:00:00 11 16 Este 26 Este 0 -- -- 47
2020-01-17 13:00:00 11.3 15 Este 41 Sudeste 0 -- -- 38
2020-01-17 12:00:00 10.3 35 Sudeste 45 Sudeste 0 -- -- 39
2020-01-17 11:00:00 9.4 40 Sudeste 49 Sudeste 0 -- -- 37
2020-01-17 10:00:00 9.4 39 Sudeste 49 Sudeste 0 -- -- 32
2020-01-17 09:00:00 9.1 41 Sudeste 48 Sudeste 0 -- -- 25
2020-01-17 08:00:00 7.2 41 Este 46 Este 0 -- -- 28
2020-01-17 07:00:00 6.8 30 Este 37 Este 0 -- -- 26
2020-01-17 06:00:00 7.9 32 Este 38 Este 0 -- -- 21
2020-01-17 05:00:00 9.4 27 Este 36 Este 0 -- -- 15
2020-01-17 04:00:00 9.8 23 Este 32 Este 0 -- -- 14
2020-01-17 03:00:00 9.6 22 Este 29 Este 0 -- -- 14
2020-01-17 02:00:00 9.4 21 Este 30 Este 0 -- -- 20
2020-01-17 01:00:00 9.4 25 Este 35 Este 0 -- -- 20
2020-01-17 00:00:00 5.8 24 Este 29 Este 0 -- -- 53
2020-01-16 23:00:00 6.9 21 Este 25 Nordeste 0 -- -- 55
2020-01-16 22:00:00 7.5 21 Este 29 Este 0 -- -- 55
2020-01-16 21:00:00 7.6 24 Este 27 Este 0 -- -- 57
2020-01-16 20:00:00 7.7 24 Este 27 Este 0 -- -- 61
2020-01-16 19:00:00 6.9 23 Este 25 Nordeste 0 -- -- 57
2020-01-16 18:00:00 10 3 Nordeste 13 Oeste 0 -- -- 79
2020-01-16 17:00:00 12 5 Oeste 20 Sudoeste 0 -- -- 72
2020-01-16 16:00:00 12.7 5 Oeste 18 Sudoeste 0 -- -- 58
2020-01-16 15:00:00 12.7 3 Este 16 Oeste 0 -- -- 50
2020-01-16 14:00:00 12.7 5 Oeste 16 Oeste 0 -- -- 52
2020-01-16 13:00:00 12.4 4 Oeste 13 Sudoeste 0 -- -- 51
2020-01-16 12:00:00 11 8 Sudeste 15 Sudeste 0 -- -- 46
2020-01-16 11:00:00 10.4 9 Sur 22 Sur 0 -- -- 44
2020-01-16 10:00:00 9.4 10 Sur 22 Sur 0 -- -- 43
2020-01-16 09:00:00 7.3 18 Sur 23 Sur 0 -- -- 45
2020-01-16 08:00:00 5.4 21 Sur 29 Sur 0 -- -- 48
2020-01-16 07:00:00 5.6 19 Sudeste 33 Sur 0 -- -- 46
2020-01-16 06:00:00 5.3 26 Sur 31 Sur 0 -- -- 47
2020-01-16 05:00:00 5.3 23 Sur 27 Sur 0 -- -- 47
2020-01-16 04:00:00 5.6 19 Sudeste 30 Sudeste 0 -- -- 46
2020-01-16 03:00:00 5.9 28 Sudeste 35 Sudeste 0 -- -- 44
2020-01-16 02:00:00 5.5 31 Sudeste 37 Sudeste 0 -- -- 47
2020-01-16 01:00:00 5.9 35 Sudeste 39 Sudeste 0 -- -- 39
2020-01-16 00:00:00 5.5 34 Sudeste 42 Sudeste 0 -- -- 47
2020-01-15 23:00:00 5.7 33 Sudeste 41 Sudeste 0 -- -- 46
2020-01-15 22:00:00 5.2 30 Sudeste 36 Sudeste 0 -- -- 48
2020-01-15 21:00:00 5.8 25 Sudeste 29 Sudeste 0 -- -- 46
2020-01-15 20:00:00 5.5 24 Sudeste 28 Sudeste 0 -- -- 46
2020-01-15 19:00:00 5.7 22 Sudeste 26 Sudeste 0 -- -- 53
2020-01-15 18:00:00 7.8 7 Sudeste 13 Este 0 -- -- 53
2020-01-15 17:00:00 8.7 7 Sudeste 16 Sudeste 0 -- -- 63
2020-01-15 16:00:00 8.7 12 Sudeste 20 Sudeste 0 -- -- 65
2020-01-15 15:00:00 9.4 11 Sudeste 22 Sudeste 0 -- -- 64
2020-01-15 14:00:00 10 10 Sudeste 21 Sur 0 -- -- 62
2020-01-15 13:00:00 9.4 17 Sudeste 38 Sudeste 0 -- -- 77
2020-01-15 12:00:00 8.7 24 Sudeste 35 Sudeste 0 -- -- 67
2020-01-15 11:00:00 8.1 21 Sudeste 35 Sudeste 0 -- -- 65
2020-01-15 10:00:00 7.4 20 Sudeste 31 Sudeste 0 -- -- 58
2020-01-15 09:00:00 6 22 Sudeste 33 Sudeste 0 -- -- 53
2020-01-15 08:00:00 4.5 22 Sudeste 34 Sur 0 -- -- 66
2020-01-15 07:00:00 4.6 28 Sudeste 34 Sur 0 -- -- 59
2020-01-15 06:00:00 4.7 27 Sur 34 Sur 0 -- -- 60
2020-01-15 05:00:00 4.6 23 Sur 32 Sur 0 -- -- 56
2020-01-15 04:00:00 4.9 23 Sudeste 35 Sudeste 0 -- -- 51
2020-01-15 03:00:00 5.3 24 Sudeste 27 Sudeste 0 -- -- 45
2020-01-15 02:00:00 5.1 22 Sudeste 30 Sudeste 0 -- -- 52
2020-01-15 01:00:00 5.9 30 Sudeste 34 Sudeste 0 -- -- 42
2020-01-15 00:00:00 6 25 Este 31 Sudeste 0 -- -- 44
2020-01-14 23:00:00 6.8 21 Sudeste 28 Sudeste 0 -- -- 28
2020-01-14 22:00:00 6.8 18 Sudeste 22 Sudeste 0 -- -- 28
2020-01-14 21:00:00 6.6 15 Este 23 Sudeste 0 -- -- 32
2020-01-14 20:00:00 5.7 21 Sudeste 33 Sudeste 0 -- -- 44
2020-01-14 19:00:00 5.6 24 Sudeste 29 Sudeste 0 -- -- 73
2020-01-14 18:00:00 6.2 23 Sudeste 38 Sudeste 0 -- -- 70
2020-01-14 17:00:00 7.4 28 Sudeste 37 Sudeste 0 -- -- 70
2020-01-14 16:00:00 9.7 23 Sudeste 42 Sur 0 -- -- 65
2020-01-14 15:00:00 10.5 25 Sur 39 Sur 0 -- -- 59
2020-01-14 14:00:00 11 22 Sur 45 Sudeste 0 -- -- 62
2020-01-14 13:00:00 10.4 28 Sur 49 Sur 0 -- -- 73
2020-01-14 12:00:00 9.6 31 Sudeste 51 Sudeste 0 -- -- 78
2020-01-14 11:00:00 7.6 33 Sudeste 58 Sur 0 -- -- 87
2020-01-14 10:00:00 7 33 Sudeste 53 Sur 0 -- -- 90
2020-01-14 09:00:00 5.8 29 Sudeste 49 Sur 0 -- -- 94
2020-01-14 08:00:00 5.6 28 Sudeste 58 Sur 0 -- -- 97
2020-01-14 07:00:00 5.5 37 Sur 55 Sur 0 -- -- 90
2020-01-14 06:00:00 5.6 32 Sudeste 49 Sudeste 0 -- -- 70
2020-01-14 05:00:00 6 31 Sudeste 48 Sudeste 0 -- -- 57
2020-01-14 04:00:00 6.4 35 Sudeste 51 Sur 0 -- -- 48
2020-01-14 03:00:00 6.5 35 Sudeste 50 Sur 0 -- -- 46
2020-01-14 02:00:00 6.6 36 Sur 50 Sur 0 -- -- 46
2020-01-14 01:00:00 6.4 39 Sur 54 Sur 0 -- -- 49
2020-01-14 00:00:00 6 37 Sur 50 Sur 0 -- -- 55
2020-01-13 23:00:00 5.7 24 Sudeste 41 Sur 0 -- -- 93
2020-01-13 22:00:00 5.9 26 Sudeste 39 Sudeste 0 -- -- 83
2020-01-13 21:00:00 6.1 23 Sudeste 37 Sur 0 -- -- 83
2020-01-13 20:00:00 6.6 22 Sudeste 38 Sudeste 0 -- -- 74
2020-01-13 19:00:00 6.4 22 Sudeste 32 Sudeste 0 -- -- 76
2020-01-13 18:00:00 7.6 16 Sudeste 27 Sur 0 -- -- 77
2020-01-13 17:00:00 9.8 13 Sudeste 28 Sudeste 0 -- -- 75
2020-01-13 16:00:00 10.6 15 Sudeste 28 Sur 0 -- -- 76
2020-01-13 15:00:00 12 15 Sudeste 29 Sudeste 0 -- -- 60
2020-01-13 14:00:00 11.7 20 Sudeste 34 Sudeste 0 -- -- 55
2020-01-13 13:00:00 10.5 26 Sudeste 36 Sudeste 0 -- -- 60
2020-01-13 12:00:00 10.5 25 Sudeste 42 Sudeste 0 -- -- 56
2020-01-13 11:00:00 9.6 32 Sudeste 42 Sudeste 0 -- -- 56
2020-01-13 10:00:00 9.2 30 Sudeste 41 Sudeste 0 -- -- 55
2020-01-13 09:00:00 8 33 Sudeste 42 Sudeste 0 -- -- 58
2020-01-13 08:00:00 6.6 32 Sudeste 43 Sudeste 0 -- -- 61
2020-01-13 07:00:00 6.6 35 Sudeste 48 Sudeste 0 -- -- 58
2020-01-13 06:00:00 6.7 41 Sudeste 54 Sudeste 0 -- -- 56
2020-01-13 05:00:00 6.6 45 Sudeste 55 Sudeste 0 -- -- 53
2020-01-13 04:00:00 6.3 49 Sudeste 56 Sudeste 0 -- -- 55
2020-01-13 03:00:00 6.3 45 Sudeste 54 Sudeste 0 -- -- 56
2020-01-13 02:00:00 5.6 43 Sudeste 48 Sudeste 0 -- -- 75
2020-01-13 01:00:00 5.1 32 Este 45 Este 0 -- -- 93
2020-01-13 00:00:00 4.8 34 Este 42 Este 0 -- -- 100
2020-01-12 23:00:00 5.3 25 Este 35 Este 0 -- -- 100
2020-01-12 22:00:00 6.1 30 Este 44 Este 0 -- -- 100
2020-01-12 21:00:00 6.6 17 Este 37 Este 0 -- -- 100
2020-01-12 20:00:00 6.7 23 Este 49 Este 0 -- -- 100
2020-01-12 19:00:00 6.2 31 Este 40 Nordeste 0 -- -- 100
2020-01-12 18:00:00 5.8 13 Nordeste 26 Este 0 -- -- 100
2020-01-12 17:00:00 6.6 22 Este 35 Este 0 -- -- 100
2020-01-12 16:00:00 7 16 Nordeste 33 Este 0 -- -- 100
2020-01-12 15:00:00 7.4 21 Nordeste 32 Nordeste 0 -- -- 100
2020-01-12 14:00:00 7.8 11 Norte 19 Norte 0 -- -- 100
2020-01-12 13:00:00 8.7 11 Noroeste 20 Oeste 0 -- -- 100
2020-01-12 12:00:00 8.4 13 Este 23 Este 0 -- -- 100
2020-01-12 11:00:00 7.1 13 Este 36 Este 0 -- -- 100
2020-01-12 10:00:00 6.3 31 Este 43 Nordeste 0 -- -- 100
2020-01-12 09:00:00 5.8 38 Nordeste 51 Nordeste 0 -- -- 100
2020-01-12 08:00:00 5.9 36 Nordeste 55 Nordeste 0 -- -- 100
2020-01-12 07:00:00 5.1 35 Nordeste 56 Nordeste 0.2 -- -- 100
2020-01-12 06:00:00 5.1 46 Nordeste 56 Nordeste 0 -- -- 100
2020-01-12 05:00:00 4.8 47 Nordeste 61 Nordeste 0 -- -- 100
2020-01-12 04:00:00 5.1 46 Nordeste 59 Nordeste 0 -- -- 100
2020-01-12 03:00:00 5.2 46 Nordeste 58 Nordeste 0 -- -- 100
2020-01-12 02:00:00 5.4 44 Nordeste 54 Nordeste 0 -- -- 100
2020-01-12 01:00:00 5.7 45 Nordeste 60 Nordeste 0 -- -- 100
2020-01-12 00:00:00 5.4 41 Nordeste 57 Nordeste 0.2 -- -- 100
2020-01-11 23:00:00 5.9 36 Nordeste 55 Nordeste 0 -- -- 100
2020-01-11 22:00:00 5.9 43 Nordeste 60 Nordeste 0.2 -- -- 100
2020-01-11 21:00:00 5.8 40 Nordeste 60 Nordeste 0.2 -- -- 100
2020-01-11 20:00:00 5.6 44 Nordeste 64 Nordeste 0 -- -- 100
2020-01-11 19:00:00 5.9 46 Nordeste 60 Nordeste 0 -- -- 100
2020-01-11 18:00:00 5.6 46 Nordeste 57 Nordeste 0 -- -- 100
2020-01-11 17:00:00 5.9 45 Nordeste 59 Nordeste 0 -- -- 100
2020-01-11 16:00:00 6.6 43 Nordeste 56 Nordeste 0 -- -- 100
2020-01-11 15:00:00 6.8 40 Nordeste 53 Nordeste 0 -- -- 100
2020-01-11 14:00:00 6.5 32 Nordeste 63 Nordeste 0 -- -- 100
2020-01-11 13:00:00 6.2 46 Nordeste 60 Nordeste 0 -- -- 100
2020-01-11 12:00:00 6.8 32 Nordeste 51 Nordeste 0 -- -- 100
2020-01-11 11:00:00 6.1 37 Nordeste 52 Nordeste 0 -- -- 100
2020-01-11 10:00:00 5.7 33 Nordeste 43 Nordeste 0 -- -- 100
2020-01-11 09:00:00 5.4 34 Nordeste 39 Nordeste 0 -- -- 100
2020-01-11 08:00:00 7.7 33 Nordeste 39 Nordeste 0 -- -- 60
2020-01-11 07:00:00 5.8 36 Nordeste 41 Nordeste 0 -- -- 100
2020-01-11 06:00:00 5.3 40 Nordeste 44 Nordeste 0 -- -- 100
2020-01-11 05:00:00 6.5 35 Nordeste 46 Nordeste 0 -- -- 100
2020-01-11 04:00:00 7.7 38 Nordeste 46 Nordeste 0.2 -- -- 100
2020-01-11 03:00:00 6.8 40 Nordeste 48 Nordeste 0 -- -- 100
2020-01-11 02:00:00 7.2 35 Nordeste 49 Nordeste 0 -- -- 100
2020-01-11 01:00:00 7.5 41 Nordeste 49 Nordeste 0 -- -- 100
2020-01-11 00:00:00 7.1 37 Nordeste 49 Nordeste 0.2 -- -- 100
2020-01-10 23:00:00 7 38 Nordeste 47 Nordeste 0 -- -- 100
2020-01-10 22:00:00 6.8 33 Nordeste 47 Nordeste 0 -- -- 100
2020-01-10 21:00:00 6.6 41 Nordeste 53 Nordeste 0 -- -- 100
2020-01-10 20:00:00 7.1 37 Nordeste 46 Nordeste 0 -- -- 100
2020-01-10 19:00:00 7.2 35 Nordeste 51 Nordeste 0 -- -- 100
2020-01-10 18:00:00 7.2 41 Nordeste 52 Este 0 -- -- 100
2020-01-10 17:00:00 8 39 Nordeste 53 Nordeste 0 -- -- 100
2020-01-10 16:00:00 7.9 39 Nordeste 52 Nordeste 0 -- -- 100
2020-01-10 15:00:00 7.8 44 Nordeste 54 Nordeste 0.2 -- -- 100
2020-01-10 14:00:00 8.7 36 Nordeste 52 Nordeste 0.4 -- -- 100
2020-01-10 13:00:00 8.9 37 Nordeste 55 Nordeste 0.2 -- -- 100
2020-01-10 12:00:00 8.4 45 Nordeste 65 Nordeste 0.8 -- -- 100
2020-01-10 11:00:00 8.6 41 Nordeste 63 Nordeste 0.2 -- -- 100
2020-01-10 10:00:00 8.2 48 Nordeste 71 Nordeste 0 -- -- 100
2020-01-10 09:00:00 7.3 48 Nordeste 65 Nordeste 0.2 -- -- 100
2020-01-10 08:00:00 6.9 42 Nordeste 61 Nordeste 0 -- -- 100
2020-01-10 07:00:00 6.8 45 Nordeste 61 Nordeste 0 -- -- 100
2020-01-10 06:00:00 6.4 42 Nordeste 61 Nordeste 0 -- -- 100
2020-01-10 05:00:00 6.7 50 Nordeste 71 Nordeste 0 -- -- 100
2020-01-10 04:00:00 6.5 48 Nordeste 74 Nordeste 0 -- -- 100
2020-01-10 03:00:00 6.6 58 Nordeste 88 Nordeste 0 -- -- 100
2020-01-10 02:00:00 6.1 70 Nordeste 87 Nordeste 0.2 -- -- 100
2020-01-10 01:00:00 5.7 51 Nordeste 72 Nordeste 0 -- -- 100
2020-01-10 00:00:00 5.9 56 Nordeste 76 Este 0 -- -- 100
2020-01-09 23:00:00 5.8 59 Nordeste 90 Nordeste 0.2 -- -- 100
2020-01-09 22:00:00 5.5 61 Nordeste 81 Nordeste 0 -- -- 100
2020-01-09 21:00:00 5.7 42 Nordeste 66 Nordeste 0 -- -- 100
2020-01-09 20:00:00 6.1 41 Nordeste 65 Nordeste 0 -- -- 100
2020-01-09 19:00:00 5.3 44 Nordeste 66 Nordeste 0 -- -- 100
2020-01-09 18:00:00 5.5 48 Nordeste 76 Este 0 -- -- 100
2020-01-09 17:00:00 5.7 42 Nordeste 59 Este 0 -- -- 100
2020-01-09 16:00:00 6.2 37 Nordeste 59 Este 0 -- -- 100
2020-01-09 15:00:00 6.4 39 Nordeste 68 Este 0 -- -- 100
2020-01-09 14:00:00 6.3 47 Nordeste 70 Nordeste 0 -- -- 100
2020-01-09 13:00:00 6.5 42 Nordeste 67 Nordeste 0 -- -- 100
2020-01-09 12:00:00 6.1 39 Nordeste 55 Nordeste 0 -- -- 100
2020-01-09 11:00:00 5.5 40 Nordeste 65 Nordeste 0 -- -- 100
2020-01-09 10:00:00 5.4 48 Nordeste 67 Nordeste 0 -- -- 100
2020-01-09 09:00:00 5.7 46 Nordeste 63 Nordeste 0 -- -- 100
2020-01-09 08:00:00 6.2 39 Nordeste 65 Nordeste 0.2 -- -- 100
2020-01-09 07:00:00 6.1 41 Nordeste 61 Este 0 -- -- 100
2020-01-09 06:00:00 5.9 43 Nordeste 63 Nordeste 0 -- -- 100
2020-01-09 05:00:00 4.9 41 Nordeste 62 Nordeste 0 -- -- 100
2020-01-09 04:00:00 4.9 45 Nordeste 60 Nordeste 0 -- -- 100
2020-01-09 03:00:00 5.6 35 Este 64 Nordeste 0 -- -- 100
2020-01-09 02:00:00 5.5 44 Nordeste 68 Nordeste 0 -- -- 100
2020-01-09 01:00:00 5.6 44 Nordeste 71 Nordeste 0 -- -- 100
2020-01-09 00:00:00 5.3 53 Nordeste 78 Nordeste 0 -- -- 100
2020-01-08 23:00:00 5.1 59 Nordeste 78 Nordeste 0 -- -- 100
2020-01-08 22:00:00 4.9 58 Nordeste 75 Este 0.2 -- -- 100
2020-01-08 21:00:00 4.9 45 Nordeste 70 Este 0 -- -- 100
2020-01-08 20:00:00 5.1 39 Nordeste 66 Nordeste 0 -- -- 100
2020-01-08 19:00:00 5.5 38 Nordeste 62 Nordeste 0 -- -- 100
2020-01-08 18:00:00 5.5 34 Nordeste 56 Nordeste 0 -- -- 100
2020-01-08 17:00:00 5.8 30 Nordeste 45 Nordeste 0 -- -- 100
2020-01-08 16:00:00 6.2 22 Este 43 Este 0 -- -- 100
2020-01-08 15:00:00 6.2 25 Este 42 Nordeste 0 -- -- 100
2020-01-08 14:00:00 6.3 26 Este 44 Nordeste 0 -- -- 100
2020-01-08 13:00:00 6.1 32 Nordeste 54 Nordeste 0 -- -- 100
2020-01-08 12:00:00 6.3 27 Nordeste 52 Este 0 -- -- 100
2020-01-08 11:00:00 6.2 36 Nordeste 52 Este 0 -- -- 100
2020-01-08 10:00:00 6.5 35 Este 59 Nordeste 0 -- -- 100
2020-01-08 09:00:00 5.8 31 Nordeste 53 Nordeste 0 -- -- 100
2020-01-08 08:00:00 5.8 30 Nordeste 49 Nordeste 0 -- -- 100
2020-01-08 07:00:00 5 40 Nordeste 50 Nordeste 0 -- -- 100
2020-01-08 06:00:00 5.1 31 Nordeste 61 Este 0 -- -- 100
2020-01-08 05:00:00 4.7 49 Nordeste 70 Nordeste 0 -- -- 100
2020-01-08 04:00:00 5.4 46 Nordeste 63 Este 0 -- -- 100
2020-01-08 03:00:00 5.4 37 Este 62 Nordeste 0 -- -- 100
2020-01-08 02:00:00 5.2 38 Nordeste 54 Nordeste 0 -- -- 100
2020-01-08 01:00:00 4.7 37 Nordeste 53 Nordeste 0 -- -- 100
2020-01-08 00:00:00 5.4 38 Este 62 Este 0 -- -- 100
2020-01-07 23:00:00 4.7 49 Nordeste 62 Nordeste 0.2 -- -- 100
2020-01-07 22:00:00 4.9 35 Nordeste 50 Nordeste 0 -- -- 100
2020-01-07 21:00:00 6 31 Nordeste 46 Nordeste 0 -- -- 100
2020-01-07 20:00:00 6.2 12 Nordeste 24 Norte 0 -- -- 100
2020-01-07 19:00:00 6.3 8 Nordeste 19 Nordeste 0 -- -- 100
2020-01-07 18:00:00 6.6 8 Nordeste 15 Nordeste 0 -- -- 100
2020-01-07 17:00:00 7.2 5 Este 15 Este 0 -- -- 100
2020-01-07 16:00:00 7.6 3 Sudeste 28 Este 0 -- -- 100
2020-01-07 15:00:00 7.3 18 Este 40 Este 0 -- -- 100
2020-01-07 14:00:00 6 30 Este 43 Este 0 -- -- 100
2020-01-07 13:00:00 6.2 13 Nordeste 25 Este 0 -- -- 100
2020-01-07 12:00:00 6.3 7 Nordeste 28 Este 0 -- -- 100
2020-01-07 11:00:00 6 17 Este 61 Nordeste 0 -- -- 100
2020-01-07 10:00:00 5.5 46 Nordeste 64 Nordeste 0 -- -- 100
2020-01-07 09:00:00 5.4 21 Nordeste 50 Este 0 -- -- 100
2020-01-07 08:00:00 5.2 40 Este 86 Nordeste 0 -- -- 100
2020-01-07 07:00:00 4.7 56 Nordeste 84 Nordeste 0 -- -- 100
2020-01-07 06:00:00 4.4 59 Nordeste 77 Nordeste 0 -- -- 100
2020-01-07 05:00:00 4.9 53 Nordeste 86 Nordeste 0 -- -- 100
2020-01-07 04:00:00 6 58 Nordeste 88 Nordeste 0 -- -- 100
2020-01-07 03:00:00 5.9 53 Nordeste 83 Nordeste 0.2 -- -- 100
2020-01-07 02:00:00 5.7 54 Nordeste 82 Nordeste 0 -- -- 100
2020-01-07 01:00:00 4.9 64 Nordeste 86 Nordeste 0 -- -- 100
2020-01-07 00:00:00 5.5 64 Nordeste 89 Nordeste 0.4 -- -- 100
2020-01-06 23:00:00 6.8 53 Nordeste 90 Nordeste 0.6 -- -- 100
2020-01-06 22:00:00 5.8 66 Nordeste 90 Nordeste 0 -- -- 100
2020-01-06 21:00:00 5.5 64 Nordeste 84 Nordeste 0 -- -- 100
2020-01-06 20:00:00 5.6 53 Nordeste 75 Nordeste 0 -- -- 100
2020-01-06 19:00:00 5.4 49 Nordeste 77 Nordeste 0 -- -- 100
2020-01-06 18:00:00 5.7 50 Nordeste 79 Nordeste 0 -- -- 100
2020-01-06 17:00:00 6 49 Nordeste 73 Nordeste 0 -- -- 100
2020-01-06 16:00:00 6.2 52 Nordeste 78 Nordeste 0 -- -- 97
2020-01-06 15:00:00 6.7 45 Nordeste 68 Nordeste 0 -- -- 100
2020-01-06 14:00:00 6.4 43 Nordeste 65 Nordeste 0 -- -- 100
2020-01-06 13:00:00 5.6 48 Nordeste 71 Este 0 -- -- 100
2020-01-06 12:00:00 6 51 Nordeste 69 Nordeste 0 -- -- 100
2020-01-06 11:00:00 6.1 53 Nordeste 72 Nordeste 0 -- -- 100
2020-01-06 10:00:00 6.6 41 Nordeste 63 Nordeste 0 -- -- 100
2020-01-06 09:00:00 6.1 42 Nordeste 58 Nordeste 0 -- -- 100